createdAt,value
2022-09-27T00:00:41.614Z,3.47
2022-09-27T00:03:08.138Z,2.15
2022-09-27T00:05:34.863Z,2.95
2022-09-27T00:08:01.617Z,2.10
2022-09-27T00:10:28.988Z,3.17
2022-09-27T00:12:55.986Z,3.42
2022-09-27T00:15:22.538Z,3.28
2022-09-27T00:17:52.066Z,2.30
2022-09-27T00:20:19.792Z,1.73
2022-09-27T00:22:46.845Z,2.92
2022-09-27T00:25:13.357Z,1.98
2022-09-27T00:27:39.947Z,2.20
2022-09-27T00:30:06.673Z,2.25
2022-09-27T00:32:33.345Z,2.83
2022-09-27T00:34:59.897Z,2.65
2022-09-27T00:37:27.707Z,2.25
2022-09-27T00:39:54.294Z,2.60
2022-09-27T00:42:20.929Z,2.45
2022-09-27T00:44:47.525Z,2.03
2022-09-27T00:47:14.043Z,2.28
2022-09-27T00:49:52.318Z,3.28
2022-09-27T00:52:21.650Z,2.08
2022-09-27T00:54:50.325Z,2.47
2022-09-27T00:57:17.459Z,2.42
2022-09-27T00:59:57.616Z,2.47
2022-09-27T01:02:24.342Z,2.40
2022-09-27T01:04:51.158Z,2.33
2022-09-27T01:07:17.806Z,2.47
2022-09-27T01:09:44.465Z,2.47
2022-09-27T01:12:13.779Z,2.40
2022-09-27T01:14:46.428Z,2.20
2022-09-27T01:17:27.351Z,2.03
2022-09-27T01:20:00.001Z,2.30
2022-09-27T01:22:26.527Z,2.22
2022-09-27T01:25:22.385Z,2.28
2022-09-27T01:28:07.704Z,2.30
2022-09-27T01:30:40.563Z,3.22
2022-09-27T01:33:26.115Z,3.15
2022-09-27T01:36:04.517Z,2.28
2022-09-27T01:38:36.905Z,2.38
2022-09-27T01:41:15.901Z,3.78
2022-09-27T01:43:48.082Z,2.10
2022-09-27T01:46:26.043Z,2.20
2022-09-27T01:48:53.252Z,2.13
2022-09-27T01:51:25.175Z,2.45
2022-09-27T01:53:55.345Z,2.15
2022-09-27T01:56:24.703Z,3.13
2022-09-27T01:59:14.498Z,2.85
2022-09-27T02:01:44.043Z,2.83
2022-09-27T02:04:13.743Z,2.17
2022-09-27T02:06:43.396Z,2.78
2022-09-27T02:09:32.969Z,2.35
2022-09-27T02:12:03.575Z,2.53
2022-09-27T02:14:30.055Z,2.10
2022-09-27T02:17:15.699Z,2.17
2022-09-27T02:19:52.512Z,1.92
2022-09-27T02:22:19.176Z,2.17
2022-09-27T02:24:46.237Z,2.13
2022-09-27T02:27:18.447Z,2.25
2022-09-27T02:29:53.878Z,2.40
2022-09-27T02:32:20.472Z,2.88
2022-09-27T02:34:47.905Z,2.20
2022-09-27T02:37:14.676Z,2.25
2022-09-27T02:39:41.436Z,3.15
2022-09-27T02:42:08.095Z,1.77
2022-09-27T02:44:34.759Z,2.00
2022-09-27T02:47:19.479Z,2.10
2022-09-27T02:49:55.261Z,2.28
2022-09-27T02:52:21.869Z,2.17
2022-09-27T02:54:51.394Z,2.13
2022-09-27T02:57:25.889Z,1.90
2022-09-27T02:59:55.218Z,2.25
2022-09-27T03:02:27.873Z,2.00
2022-09-27T03:04:56.716Z,2.78
2022-09-27T03:07:23.500Z,3.72
2022-09-27T03:09:50.964Z,2.13
2022-09-27T03:12:25.999Z,2.10
2022-09-27T03:14:56.614Z,2.65
2022-09-27T03:17:23.315Z,2.00
2022-09-27T03:19:50.119Z,2.55
2022-09-27T03:22:16.763Z,2.03
2022-09-27T03:24:43.787Z,1.88
2022-09-27T03:27:10.569Z,1.95
2022-09-27T03:29:37.119Z,4.03
2022-09-27T03:32:04.400Z,4.55
2022-09-27T03:34:30.947Z,4.22
2022-09-27T03:36:57.512Z,2.00
2022-09-27T03:39:24.010Z,1.77
2022-09-27T03:41:50.641Z,2.08
2022-09-27T03:44:17.251Z,1.80
2022-09-27T03:46:43.801Z,2.47
2022-09-27T03:49:10.481Z,1.85
2022-09-27T03:51:37.229Z,1.77
2022-09-27T03:54:03.919Z,1.85
2022-09-27T03:56:30.522Z,1.60
2022-09-27T03:58:57.034Z,3.88
2022-09-27T04:01:23.730Z,2.10
2022-09-27T04:03:50.468Z,3.13
2022-09-27T04:06:18.003Z,1.90
2022-09-27T04:08:44.949Z,1.80
2022-09-27T04:11:11.783Z,1.70
2022-09-27T04:13:38.409Z,2.28
2022-09-27T04:16:05.119Z,1.88
2022-09-27T04:18:31.836Z,1.77
2022-09-27T04:20:58.519Z,1.60
2022-09-27T04:23:29.633Z,2.38
2022-09-27T04:25:56.562Z,1.83
2022-09-27T04:28:23.687Z,1.70
2022-09-27T04:30:50.728Z,2.40
2022-09-27T04:33:17.271Z,1.92
2022-09-27T04:36:02.516Z,2.28
2022-09-27T04:38:29.168Z,2.63
2022-09-27T04:40:55.910Z,1.70
2022-09-27T04:43:22.863Z,2.05
2022-09-27T04:45:49.437Z,2.35
2022-09-27T04:48:16.176Z,1.88
2022-09-27T04:50:42.605Z,3.20
2022-09-27T04:53:13.799Z,1.90
2022-09-27T04:55:40.389Z,1.67
2022-09-27T04:58:06.964Z,1.60
2022-09-27T05:00:33.592Z,2.63
2022-09-27T05:03:00.228Z,3.75
2022-09-27T05:05:26.822Z,1.85
2022-09-27T05:07:53.396Z,2.65
2022-09-27T05:10:19.927Z,2.47
2022-09-27T05:12:46.420Z,2.97
2022-09-27T05:15:12.923Z,2.10
2022-09-27T05:17:39.413Z,1.73
2022-09-27T05:20:06.094Z,2.25
2022-09-27T05:22:32.614Z,2.40
2022-09-27T05:24:59.145Z,2.40
2022-09-27T05:27:25.923Z,2.40
2022-09-27T05:29:53.212Z,2.10
2022-09-27T05:32:19.693Z,3.00
2022-09-27T05:34:46.185Z,1.60
2022-09-27T05:37:13.221Z,2.08
2022-09-27T05:39:39.747Z,2.28
2022-09-27T05:42:08.484Z,1.85
2022-09-27T05:44:35.484Z,4.72
2022-09-27T05:47:04.341Z,1.90
2022-09-27T05:49:31.243Z,2.17
2022-09-27T05:51:57.979Z,3.30
2022-09-27T05:54:24.558Z,2.45
2022-09-27T05:56:54.431Z,3.63
2022-09-27T05:59:20.969Z,2.78
2022-09-27T06:01:48.434Z,2.35
2022-09-27T06:04:15.137Z,2.50
2022-09-27T06:06:41.718Z,2.22
2022-09-27T06:09:11.889Z,2.75
2022-09-27T06:11:40.679Z,3.63
2022-09-27T06:14:09.874Z,5.45
2022-09-27T06:16:36.633Z,5.28
2022-09-27T06:19:04.202Z,4.05
2022-09-27T06:21:32.127Z,5.28
2022-09-27T06:23:59.751Z,3.28
2022-09-27T06:26:29.737Z,6.28
2022-09-27T06:28:56.782Z,3.47
2022-09-27T06:31:23.329Z,10.00
2022-09-27T06:33:50.233Z,5.00
2022-09-27T06:38:49.391Z,8.02
2022-09-27T06:41:16.522Z,3.53
2022-09-27T06:43:43.133Z,4.15
2022-09-27T06:46:09.670Z,3.72
2022-09-27T06:48:38.573Z,6.30
2022-09-27T06:51:05.491Z,4.22
2022-09-27T06:53:32.171Z,2.03
2022-09-27T06:56:00.208Z,5.60
2022-09-27T06:58:45.691Z,4.20
2022-09-27T07:01:12.311Z,4.05
2022-09-27T07:03:41.704Z,5.93
2022-09-27T07:06:12.028Z,4.93
2022-09-27T07:08:38.701Z,4.60
2022-09-27T07:11:06.379Z,8.95
2022-09-27T07:13:34.617Z,6.20
2022-09-27T07:16:01.604Z,7.38
2022-09-27T07:18:28.175Z,3.08
2022-09-27T07:20:59.388Z,5.88
2022-09-27T07:23:26.963Z,2.72
2022-09-27T07:25:53.764Z,7.35
2022-09-27T07:28:22.138Z,2.88
2022-09-27T07:30:49.333Z,6.93
2022-09-27T07:33:16.010Z,5.53
2022-09-27T07:35:43.823Z,4.93
2022-09-27T07:38:13.181Z,6.25
2022-09-27T07:40:40.833Z,5.13
2022-09-27T07:43:09.477Z,3.88
2022-09-27T07:45:36.271Z,6.20
2022-09-27T07:48:06.356Z,3.10
2022-09-27T07:50:33.132Z,5.55
2022-09-27T07:52:59.672Z,5.22
2022-09-27T07:55:26.216Z,4.90
2022-09-27T07:57:53.730Z,6.75
2022-09-27T08:00:20.400Z,5.50
2022-09-27T08:02:46.993Z,5.20
2022-09-27T08:05:13.893Z,4.45
2022-09-27T08:07:41.013Z,3.08
2022-09-27T08:10:08.263Z,4.32
2022-09-27T08:12:37.833Z,3.63
2022-09-27T08:15:05.123Z,2.55
2022-09-27T08:17:32.008Z,3.67
2022-09-27T08:19:58.947Z,6.97
2022-09-27T08:22:25.607Z,4.72
2022-09-27T08:24:52.127Z,3.47
2022-09-27T08:27:18.970Z,2.47
2022-09-27T08:29:46.149Z,6.28
2022-09-27T08:32:12.750Z,5.93
2022-09-27T08:34:39.448Z,7.70
2022-09-27T08:37:06.279Z,5.78
2022-09-27T08:39:33.058Z,5.40
2022-09-27T08:42:05.699Z,5.03
2022-09-27T08:44:37.983Z,9.63
2022-09-27T08:47:07.413Z,15.73
2022-09-27T08:49:38.865Z,16.73
2022-09-27T08:52:16.914Z,10.65
2022-09-27T08:54:45.523Z,7.35
2022-09-27T08:57:16.251Z,5.95
2022-09-27T09:00:01.580Z,6.35
2022-09-27T09:02:28.299Z,9.38
2022-09-27T09:04:57.343Z,8.93
2022-09-27T09:07:29.953Z,6.60
2022-09-27T09:10:02.389Z,10.93
2022-09-27T09:12:46.958Z,6.32
2022-09-27T09:15:19.749Z,5.85
2022-09-27T09:18:09.749Z,13.75
2022-09-27T09:20:58.519Z,25.75
2022-09-27T09:23:27.949Z,21.23
2022-09-27T09:25:55.169Z,15.30
2022-09-27T09:28:44.000Z,11.60
2022-09-27T09:31:26.661Z,11.80
2022-09-27T09:33:56.756Z,12.95
2022-09-27T09:36:23.294Z,11.50
2022-09-27T09:38:51.828Z,11.43
2022-09-27T09:41:25.081Z,16.33
2022-09-27T09:43:57.452Z,15.70
2022-09-27T09:46:28.534Z,12.18
2022-09-27T09:48:58.701Z,12.07
2022-09-27T09:51:32.172Z,13.25
2022-09-27T09:54:04.871Z,12.30
2022-09-27T09:56:33.159Z,13.50
2022-09-27T09:59:02.343Z,14.15
2022-09-27T10:01:33.681Z,12.98
2022-09-27T10:04:00.201Z,14.27
2022-09-27T10:06:27.102Z,14.13
2022-09-27T10:08:55.785Z,14.75
2022-09-27T10:11:26.581Z,14.27
2022-09-27T10:13:56.101Z,14.07
2022-09-27T10:16:22.914Z,10.95
2022-09-27T10:18:51.791Z,17.73
2022-09-27T10:21:31.291Z,27.42
2022-09-27T10:24:05.311Z,18.88
2022-09-27T10:26:32.351Z,17.42
2022-09-27T10:29:13.901Z,9.90
2022-09-27T10:31:46.093Z,11.05
2022-09-27T10:34:39.092Z,6.65
2022-09-27T10:37:07.310Z,7.28
2022-09-27T10:39:34.301Z,7.72
2022-09-27T10:42:00.925Z,7.22
2022-09-27T10:44:32.631Z,3.88
2022-09-27T10:47:01.301Z,4.03
2022-09-27T10:49:43.123Z,2.83
2022-09-27T10:52:19.688Z,2.95
2022-09-27T10:55:18.863Z,2.42
2022-09-27T10:57:49.882Z,2.53
2022-09-27T11:00:27.191Z,3.35
2022-09-27T11:02:56.543Z,2.20
2022-09-27T11:05:23.701Z,2.92
2022-09-27T11:07:52.807Z,1.80
2022-09-27T11:10:23.601Z,3.25
2022-09-27T11:13:06.230Z,2.30
2022-09-27T11:15:36.001Z,3.47
2022-09-27T11:18:08.745Z,6.78
2022-09-27T11:21:13.434Z,18.52
2022-09-27T11:23:49.870Z,66.95
2022-09-27T11:26:34.800Z,58.20
2022-09-27T11:29:21.623Z,53.95
2022-09-27T11:32:26.360Z,47.33
2022-09-27T11:35:11.351Z,40.42
2022-09-27T11:37:56.500Z,37.15
2022-09-27T11:40:31.674Z,30.02
2022-09-27T11:43:04.092Z,28.33
2022-09-27T11:45:56.480Z,27.42
2022-09-27T11:48:17.062Z,22.98
2022-09-27T11:50:46.181Z,21.92
2022-09-27T11:53:47.792Z,17.30
2022-09-27T11:56:32.730Z,16.50
2022-09-27T11:59:22.465Z,12.20
2022-09-27T12:02:17.218Z,14.20
2022-09-27T12:04:46.805Z,12.57
2022-09-27T12:07:28.361Z,9.40
2022-09-27T12:09:57.291Z,8.48
2022-09-27T12:12:28.822Z,9.27
2022-09-27T12:14:55.262Z,6.57
2022-09-27T12:17:26.511Z,7.00
2022-09-27T12:19:54.940Z,6.65
2022-09-27T12:22:40.552Z,7.47
2022-09-27T12:25:20.587Z,5.82
2022-09-27T12:27:51.201Z,4.78
2022-09-27T12:30:19.011Z,6.60
2022-09-27T12:32:56.891Z,5.43
2022-09-27T12:35:31.110Z,5.72
2022-09-27T12:38:03.871Z,5.50
2022-09-27T12:40:33.250Z,5.95
2022-09-27T12:43:02.751Z,5.00
2022-09-27T12:45:40.020Z,6.80
2022-09-27T12:48:12.370Z,4.30
2022-09-27T12:50:44.116Z,4.63
2022-09-27T12:53:13.632Z,2.95
2022-09-27T12:56:03.540Z,5.22
2022-09-27T12:58:33.329Z,3.65
2022-09-27T13:01:07.686Z,4.88
2022-09-27T13:03:57.552Z,5.72
2022-09-27T13:06:39.851Z,3.80
2022-09-27T13:09:22.581Z,6.28
2022-09-27T13:11:49.611Z,5.05
2022-09-27T13:14:19.133Z,4.25
2022-09-27T13:16:46.820Z,3.17
2022-09-27T13:19:26.434Z,5.20
2022-09-27T13:21:56.289Z,4.47
2022-09-27T13:24:30.291Z,6.13
2022-09-27T13:26:58.462Z,3.85
2022-09-27T13:29:29.361Z,3.67
2022-09-27T13:31:57.867Z,3.25
2022-09-27T13:34:53.940Z,4.03
2022-09-27T13:37:31.261Z,4.07
2022-09-27T13:40:16.205Z,3.42
2022-09-27T13:43:01.471Z,7.05
2022-09-27T13:45:30.414Z,5.18
2022-09-27T13:47:58.110Z,7.03
2022-09-27T13:50:29.298Z,9.55
2022-09-27T13:52:58.578Z,11.50
2022-09-27T13:55:40.450Z,12.90
2022-09-27T13:58:15.431Z,6.00
2022-09-27T14:00:43.619Z,9.55
2022-09-27T14:03:53.523Z,6.22
2022-09-27T14:06:22.621Z,3.00
2022-09-27T14:08:51.019Z,3.60
2022-09-27T14:11:21.600Z,4.13
2022-09-27T14:13:49.363Z,3.75
2022-09-27T14:16:17.069Z,2.92
2022-09-27T14:18:47.171Z,3.35
2022-09-27T14:21:16.419Z,3.38
2022-09-27T14:23:42.901Z,2.03
2022-09-27T14:26:22.683Z,2.38
2022-09-27T14:28:49.350Z,4.75
2022-09-27T14:31:18.049Z,2.15
2022-09-27T14:33:45.081Z,3.45
2022-09-27T14:36:49.383Z,1.80
2022-09-27T14:39:37.962Z,3.47
2022-09-27T14:42:06.749Z,2.38
2022-09-27T14:44:33.481Z,4.47
2022-09-27T14:47:09.772Z,4.85
2022-09-27T14:49:36.441Z,2.65
2022-09-27T14:52:03.090Z,3.40
2022-09-27T14:54:31.444Z,4.53
2022-09-27T14:57:00.010Z,5.22
2022-09-27T14:59:30.857Z,18.10
2022-09-27T15:02:00.601Z,26.05
2022-09-27T15:04:28.271Z,28.48
2022-09-27T15:06:55.881Z,28.17
2022-09-27T15:09:23.321Z,25.15
2022-09-27T15:11:53.151Z,30.67
2022-09-27T15:14:20.571Z,34.00
2022-09-27T15:16:48.350Z,31.02
2022-09-27T15:19:22.580Z,27.05
2022-09-27T15:21:49.291Z,28.77
2022-09-27T15:24:34.731Z,23.67
2022-09-27T15:27:01.462Z,26.88
2022-09-27T15:29:29.143Z,21.95
2022-09-27T15:32:06.109Z,20.55
2022-09-27T15:34:34.417Z,22.23
2022-09-27T15:37:03.702Z,22.55
2022-09-27T15:39:34.271Z,20.35
2022-09-27T15:42:06.627Z,60.90
2022-09-27T15:44:37.291Z,38.78
2022-09-27T15:47:03.780Z,28.25
2022-09-27T15:49:30.970Z,31.35
2022-09-27T15:51:59.012Z,25.70
2022-09-27T15:54:27.401Z,31.20
2022-09-27T15:56:56.011Z,22.17
2022-09-27T15:59:25.441Z,22.73
2022-09-27T16:01:54.797Z,20.38
2022-09-27T16:04:21.385Z,16.88
2022-09-27T16:06:48.050Z,16.27
2022-09-27T16:09:21.514Z,18.67
2022-09-27T16:11:48.861Z,15.35
2022-09-27T16:14:18.451Z,15.52
2022-09-27T16:16:46.360Z,16.58
2022-09-27T16:19:12.974Z,15.00
2022-09-27T16:21:39.531Z,16.17
2022-09-27T16:24:06.422Z,23.38
2022-09-27T16:26:34.193Z,28.20
2022-09-27T16:29:00.932Z,25.77
2022-09-27T16:31:27.518Z,23.52
2022-09-27T16:33:54.071Z,23.40
2022-09-27T16:36:20.801Z,22.65
2022-09-27T16:38:51.260Z,16.98
2022-09-27T16:41:18.880Z,17.15
2022-09-27T16:43:45.711Z,11.20
2022-09-27T16:46:15.292Z,17.38
2022-09-27T16:48:42.640Z,16.52
2022-09-27T16:51:32.410Z,15.23
2022-09-27T16:53:59.050Z,16.83
2022-09-27T16:56:26.303Z,13.68
2022-09-27T16:58:52.771Z,14.38
2022-09-27T17:01:19.386Z,14.07
2022-09-27T17:03:51.030Z,14.68
2022-09-27T17:06:19.470Z,13.55
2022-09-27T17:08:46.807Z,15.85
2022-09-27T17:11:14.800Z,12.07
2022-09-27T17:13:42.152Z,10.25
2022-09-27T17:16:09.139Z,11.35
2022-09-27T17:18:35.761Z,9.73
2022-09-27T17:21:06.551Z,11.13
2022-09-27T17:23:33.381Z,12.23
2022-09-27T17:26:05.551Z,11.50
2022-09-27T17:28:32.352Z,11.77
2022-09-27T17:31:03.023Z,9.40
2022-09-27T17:33:31.240Z,10.85
2022-09-27T17:36:00.010Z,8.35
2022-09-27T17:38:26.862Z,7.85
2022-09-27T17:41:00.023Z,10.48
2022-09-27T17:43:27.318Z,10.45
2022-09-27T17:45:54.320Z,7.78
2022-09-27T17:48:43.361Z,9.77
2022-09-27T17:51:12.310Z,9.23
2022-09-27T17:53:39.041Z,6.47
2022-09-27T17:56:05.701Z,7.43
2022-09-27T17:58:32.351Z,12.20
2022-09-27T18:01:07.970Z,9.25
2022-09-27T18:03:34.911Z,22.35
2022-09-27T18:06:08.270Z,13.10
2022-09-27T18:08:34.941Z,84.75
2022-09-27T18:11:08.840Z,148.15
2022-09-27T18:13:40.784Z,25.55
2022-09-27T18:16:19.976Z,13.57
2022-09-27T18:18:48.280Z,8.45
2022-09-27T18:21:16.005Z,9.00
2022-09-27T18:23:43.281Z,8.05
2022-09-27T18:26:10.798Z,8.60
2022-09-27T18:28:38.710Z,6.78
2022-09-27T18:31:07.002Z,6.25
2022-09-27T18:33:34.070Z,5.18
2022-09-27T18:36:03.691Z,6.38
2022-09-27T18:38:31.823Z,5.03
2022-09-27T18:41:04.682Z,4.32
2022-09-27T18:43:33.336Z,5.15
2022-09-27T18:46:33.555Z,10.70
2022-09-27T18:48:51.900Z,6.03
2022-09-27T18:51:19.641Z,3.88
2022-09-27T18:53:47.371Z,7.57
2022-09-27T18:56:15.299Z,10.05
2022-09-27T18:58:44.931Z,4.60
2022-09-27T19:01:13.057Z,3.60
2022-09-27T19:03:39.757Z,4.03
2022-09-27T19:06:07.338Z,9.88
2022-09-27T19:08:33.942Z,4.07
2022-09-27T19:11:07.300Z,5.15
2022-09-27T19:13:43.736Z,4.18
2022-09-27T19:16:15.291Z,4.20
2022-09-27T19:18:41.983Z,5.60
2022-09-27T19:21:10.462Z,7.45
2022-09-27T19:23:37.350Z,7.63
2022-09-27T19:26:05.180Z,4.10
2022-09-27T19:28:35.921Z,5.30
2022-09-27T19:31:06.231Z,3.55
2022-09-27T19:33:33.952Z,4.55
2022-09-27T19:36:01.221Z,5.03
2022-09-27T19:38:29.390Z,3.45
2022-09-27T19:40:56.114Z,2.67
2022-09-27T19:43:22.939Z,3.13
2022-09-27T19:45:49.397Z,3.28
2022-09-27T19:48:15.872Z,2.95
2022-09-27T19:50:42.297Z,3.47
2022-09-27T19:53:09.008Z,5.57
2022-09-27T19:55:36.036Z,6.97
2022-09-27T19:58:02.492Z,3.17
2022-09-27T20:00:28.966Z,2.53
2022-09-27T20:02:55.616Z,3.20
2022-09-27T20:05:22.202Z,2.08
2022-09-27T20:07:50.349Z,2.97
2022-09-27T20:10:17.509Z,2.97
2022-09-27T20:12:45.812Z,3.05
2022-09-27T20:15:14.040Z,2.85
2022-09-27T20:17:41.431Z,3.10
2022-09-27T20:20:08.257Z,2.40
2022-09-27T20:22:34.673Z,3.13
2022-09-27T20:25:01.196Z,3.22
2022-09-27T20:27:28.089Z,1.88
2022-09-27T20:29:54.701Z,2.22
2022-09-27T20:32:27.846Z,4.03
2022-09-27T20:34:54.684Z,3.67
2022-09-27T20:37:21.152Z,2.15
2022-09-27T20:39:47.702Z,2.72
2022-09-27T20:42:14.737Z,1.85
2022-09-27T20:44:41.561Z,2.00
2022-09-27T20:47:08.098Z,1.67
2022-09-27T20:49:34.634Z,2.45
2022-09-27T20:52:01.456Z,3.90
2022-09-27T20:54:28.178Z,2.17
2022-09-27T20:56:55.239Z,1.98
2022-09-27T20:59:22.685Z,2.05
2022-09-27T21:01:50.794Z,1.85
2022-09-27T21:04:18.491Z,1.80
2022-09-27T21:06:46.420Z,1.35
2022-09-27T21:09:18.642Z,1.17
2022-09-27T21:11:46.836Z,1.58
2022-09-27T21:14:13.479Z,1.45
2022-09-27T21:16:40.119Z,1.40
2022-09-27T21:19:06.844Z,1.88
2022-09-27T21:21:33.687Z,1.42
2022-09-27T21:24:01.058Z,1.75
2022-09-27T21:26:28.847Z,1.90
2022-09-27T21:28:56.358Z,1.10
2022-09-27T21:31:24.398Z,1.23
2022-09-27T21:33:55.144Z,1.23
2022-09-27T21:36:22.901Z,2.05
2022-09-27T21:38:49.495Z,1.23
2022-09-27T21:41:16.088Z,1.35
2022-09-27T21:43:43.950Z,1.40
2022-09-27T21:46:18.304Z,1.27
2022-09-27T21:48:47.755Z,1.10
2022-09-27T21:51:15.598Z,1.83
2022-09-27T21:53:43.226Z,1.05
2022-09-27T21:56:10.874Z,1.15
2022-09-27T21:58:39.438Z,3.60
2022-09-27T22:01:10.003Z,1.17
2022-09-27T22:03:37.670Z,0.85
2022-09-27T22:06:05.611Z,1.92
2022-09-27T22:08:33.132Z,1.20
2022-09-27T22:11:00.314Z,0.70
2022-09-27T22:13:26.856Z,1.08
2022-09-27T22:15:53.680Z,1.25
2022-09-27T22:18:20.457Z,1.20
2022-09-27T22:20:46.978Z,2.33
2022-09-27T22:23:13.688Z,0.90
2022-09-27T22:25:40.642Z,1.45
2022-09-27T22:28:08.392Z,0.75
2022-09-27T22:30:35.099Z,1.67
2022-09-27T22:33:01.610Z,1.13
2022-09-27T22:35:28.135Z,1.00
2022-09-27T22:37:54.900Z,2.55
2022-09-27T22:40:21.451Z,1.58
2022-09-27T22:42:48.133Z,1.58
2022-09-27T22:45:14.794Z,1.02
2022-09-27T22:47:41.217Z,1.42
2022-09-27T22:50:07.742Z,0.73
2022-09-27T22:52:34.324Z,0.70
2022-09-27T22:55:00.883Z,1.15
2022-09-27T22:57:27.340Z,1.20
2022-09-27T22:59:53.813Z,0.90
2022-09-27T23:02:20.284Z,1.35
2022-09-27T23:04:47.989Z,1.15
2022-09-27T23:07:14.767Z,3.05
2022-09-27T23:09:41.248Z,0.55
2022-09-27T23:12:07.897Z,1.33
2022-09-27T23:14:34.348Z,1.13
2022-09-27T23:17:01.668Z,2.15
2022-09-27T23:19:28.240Z,1.13
2022-09-27T23:21:54.734Z,1.17
2022-09-27T23:24:21.463Z,1.15
2022-09-27T23:27:07.934Z,0.95
2022-09-27T23:29:34.546Z,0.80
2022-09-27T23:32:01.120Z,0.95
2022-09-27T23:34:27.684Z,1.33
2022-09-27T23:36:54.127Z,1.08
2022-09-27T23:39:20.668Z,1.88
2022-09-27T23:41:48.199Z,0.65
2022-09-27T23:44:15.619Z,0.75
2022-09-27T23:46:42.657Z,0.80
2022-09-27T23:49:09.239Z,0.90
2022-09-27T23:51:36.436Z,1.20
2022-09-27T23:54:04.457Z,1.15
2022-09-27T23:56:30.918Z,1.13
2022-09-27T23:58:57.714Z,0.95
